MDT,Max TemperatureF,Mean TemperatureF,Min TemperatureF,Max Dew PointF,MeanDew PointF,Min DewpointF,Max Humidity, Mean Humidity, Min Humidity, Max Sea Level PressureIn, Mean Sea Level PressureIn, Min Sea Level PressureIn, Max VisibilityMiles, Mean VisibilityMiles, Min VisibilityMiles, Max Wind SpeedMPH, Mean Wind SpeedMPH, Max Gust SpeedMPH,PrecipitationIn, CloudCover, Events, WindDirDegrees
2013-5-1,38,31,24,32,27,22,100,80,59,30.67,30.30,30.06,10,4,1,26,13,33,0.28,8,Snow,23
2013-5-2,50,35,19,29,24,18,91,63,34,30.73,30.61,30.43,10,10,10,21,8,24,0.00,2,,271
2013-5-3,61,41,21,30,23,18,92,58,23,30.41,30.23,30.11,10,10,10,15,5,20,0.00,0,,36
2013-5-4,58,42,25,24,19,14,85,51,17,30.28,30.20,30.16,10,10,10,20,8,24,0.00,0,,19
2013-5-5,63,42,21,28,22,17,85,53,20,30.27,30.19,30.11,10,10,10,10,4,15,0.00,0,,162
2013-5-6,71,51,31,36,27,22,85,52,18,30.10,30.01,29.91,10,10,10,20,9,26,0.00,1,,151
2013-5-7,72,56,40,46,42,35,93,64,35,29.94,29.89,29.79,10,10,2,29,13,39,0.08,3,Rain-Thunderstorm,156
2013-5-8,71,55,39,50,43,36,100,65,30,30.03,29.94,29.86,10,8,0,32,9,41,0.11,3,Fog-Rain-Thunderstorm,34
2013-5-9,68,54,39,48,41,37,93,64,34,30.17,30.08,30.02,10,10,10,20,9,24,T,3,Rain,29
2013-5-10,73,55,37,47,39,31,100,62,23,30.25,30.13,30.05,10,7,0,25,9,35,0.00,2,Fog,331
2013-5-11,66,52,37,39,30,23,76,50,23,30.39,30.27,30.14,10,10,10,13,6,18,0.00,2,,359
2013-5-12,80,58,35,42,37,33,92,56,19,30.14,30.04,29.95,10,10,10,15,6,22,0.00,0,,141
2013-5-13,92,69,46,45,39,32,77,45,13,29.96,29.89,29.76,10,10,10,16,8,21,0.00,0,,234
2013-5-14,90,70,50,54,44,36,74,46,17,29.91,29.76,29.70,10,9,2,39,10,56,0.10,2,Rain-Thunderstorm,54
2013-5-15,81,67,52,49,41,37,77,49,21,29.90,29.81,29.74,10,10,10,26,12,32,0.00,0,,119
2013-5-16,81,67,52,55,49,40,86,57,28,29.87,29.75,29.63,10,10,10,35,7,43,0.03,3,Rain-Thunderstorm,145
2013-5-17,88,68,48,58,53,46,93,61,29,29.85,29.71,29.60,10,10,10,25,11,31,0.06,2,Rain-Thunderstorm,137
2013-5-18,76,63,50,63,58,48,100,82,64,29.85,29.75,29.59,10,7,0,25,8,30,0.29,6,Fog-Rain-Thunderstorm,73
2013-5-19,64,57,49,52,50,48,100,84,67,29.77,29.71,29.62,10,9,2,28,10,35,0.54,7,Rain-Thunderstorm,325
2013-5-20,56,52,47,50,43,40,86,76,66,29.84,29.73,29.65,10,10,8,44,24,55,0.07,7,Rain,311
2013-5-21,58,51,43,43,41,38,92,73,54,29.95,29.87,29.83,10,10,8,39,19,52,0.07,6,Rain,342
2013-5-22,58,51,44,46,43,39,93,77,61,30.14,29.98,29.91,10,10,10,10,11,14,0.00,8,,360
2013-5-23,70,58,46,47,44,35,86,63,40,30.18,30.08,29.96,10,10,10,33,20,40,0.00,5,,120
2013-5-24,77,66,54,56,53,46,93,71,49,30.04,29.91,29.83,10,10,9,31,17,39,0.00,4,,157
2013-5-25,82,70,57,61,55,51,86,61,36,29.99,29.83,29.71,10,10,10,28,13,33,T,2,Rain-Thunderstorm,137
2013-5-26,79,64,49,61,56,47,100,74,48,29.91,29.78,29.71,10,9,2,24,10,28,0.00,2,,42
2013-5-27,78,64,50,63,55,37,100,79,58,29.82,29.72,29.59,10,7,2,26,13,36,0.06,5,Rain-Thunderstorm,110
2013-5-28,77,59,41,55,49,39,96,68,40,29.82,29.67,29.54,10,9,2,36,11,45,0.33,3,Rain-Thunderstorm,128
2013-5-29,71,60,48,54,50,46,100,74,47,29.71,29.55,29.45,10,9,2,33,11,39,0.24,5,Rain-Thunderstorm,274
2013-5-30,70,58,45,46,43,40,93,66,39,29.67,29.52,29.44,10,10,10,33,19,41,T,2,Rain,284
2013-5-31,61,53,44,44,42,39,92,71,49,29.88,29.75,29.64,10,10,10,40,21,51,0.11,5,Rain,291